sensor_id;sensor_type;location;lat;lon;timestamp;temperature;humidity
16491;DHT22;8356;51.214;3.270;2023-05-07T00:15:25;460.80;2380.80
16491;DHT22;8356;51.214;3.270;2023-05-07T00:22:43;460.80;2380.80
16491;DHT22;8356;51.214;3.270;2023-05-07T00:25:09;436.00;2355.20
16491;DHT22;8356;51.214;3.270;2023-05-07T00:27:35;436.10;2355.20
16491;DHT22;8356;51.214;3.270;2023-05-07T00:30:01;436.00;2355.20
16491;DHT22;8356;51.214;3.270;2023-05-07T00:32:27;460.80;2380.80
16491;DHT22;8356;51.214;3.270;2023-05-07T00:34:52;460.80;2380.80
16491;DHT22;8356;51.214;3.270;2023-05-07T00:37:18;461.00;2380.80
16491;DHT22;8356;51.214;3.270;2023-05-07T00:39:43;461.00;2380.80
16491;DHT22;8356;51.214;3.270;2023-05-07T00:42:09;461.00;2380.80
16491;DHT22;8356;51.214;3.270;2023-05-07T00:44:35;461.10;2380.80
16491;DHT22;8356;51.214;3.270;2023-05-07T00:47:02;461.00;2380.80
16491;DHT22;8356;51.214;3.270;2023-05-07T00:49:39;461.00;2380.80
16491;DHT22;8356;51.214;3.270;2023-05-07T00:52:11;461.00;2380.80
16491;DHT22;8356;51.214;3.270;2023-05-07T00:54:38;460.80;2380.80
16491;DHT22;8356;51.214;3.270;2023-05-07T02:30:08;435.80;2355.20
16491;DHT22;8356;51.214;3.270;2023-05-07T02:32:34;435.60;2355.20
16491;DHT22;8356;51.214;3.270;2023-05-07T02:35:00;435.40;2355.20
16491;DHT22;8356;51.214;3.270;2023-05-07T02:37:25;435.20;2355.20
16491;DHT22;8356;51.214;3.270;2023-05-07T02:39:51;410.50;2355.20
16491;DHT22;8356;51.214;3.270;2023-05-07T02:42:16;410.40;2355.20
16491;DHT22;8356;51.214;3.270;2023-05-07T02:44:42;410.50;2355.20
16491;DHT22;8356;51.214;3.270;2023-05-07T02:47:08;410.50;2355.20
16491;DHT22;8356;51.214;3.270;2023-05-07T02:49:34;410.40;2355.20
16491;DHT22;8356;51.214;3.270;2023-05-07T02:52:00;410.30;2355.20
16491;DHT22;8356;51.214;3.270;2023-05-07T02:54:26;410.20;2355.20
16491;DHT22;8356;51.214;3.270;2023-05-07T02:56:51;410.20;2355.20
16491;DHT22;8356;51.214;3.270;2023-05-07T02:59:17;410.30;2355.20
16491;DHT22;8356;51.214;3.270;2023-05-07T03:01:43;410.40;2355.20
16491;DHT22;8356;51.214;3.270;2023-05-07T03:04:10;435.20;2355.20
16491;DHT22;8356;51.214;3.270;2023-05-07T03:06:36;435.20;2355.20
16491;DHT22;8356;51.214;3.270;2023-05-07T03:09:02;435.20;2355.20
16491;DHT22;8356;51.214;3.270;2023-05-07T03:11:28;435.20;2355.20
16491;DHT22;8356;51.214;3.270;2023-05-07T03:13:54;435.20;2355.20
16491;DHT22;8356;51.214;3.270;2023-05-07T03:16:19;435.40;2355.20
16491;DHT22;8356;51.214;3.270;2023-05-07T03:18:45;435.60;2355.20
16491;DHT22;8356;51.214;3.270;2023-05-07T03:21:11;435.60;2355.20
16491;DHT22;8356;51.214;3.270;2023-05-07T03:23:36;435.50;2355.20
16491;DHT22;8356;51.214;3.270;2023-05-07T03:26:02;435.40;2355.20
16491;DHT22;8356;51.214;3.270;2023-05-07T03:28:28;410.50;2355.20
16491;DHT22;8356;51.214;3.270;2023-05-07T03:30:53;410.40;2355.20
16491;DHT22;8356;51.214;3.270;2023-05-07T03:33:19;410.30;2355.20
16491;DHT22;8356;51.214;3.270;2023-05-07T03:35:44;410.30;2355.20
16491;DHT22;8356;51.214;3.270;2023-05-07T03:38:10;410.30;2355.20
16491;DHT22;8356;51.214;3.270;2023-05-07T03:40:36;410.30;2355.20
16491;DHT22;8356;51.214;3.270;2023-05-07T03:43:02;410.40;2355.20
16491;DHT22;8356;51.214;3.270;2023-05-07T03:45:27;435.30;2355.20
16491;DHT22;8356;51.214;3.270;2023-05-07T03:47:53;435.30;2355.20
16491;DHT22;8356;51.214;3.270;2023-05-07T03:50:19;435.20;2355.20
16491;DHT22;8356;51.214;3.270;2023-05-07T03:52:45;410.50;2355.20
16491;DHT22;8356;51.214;3.270;2023-05-07T03:55:11;410.50;2355.20
16491;DHT22;8356;51.214;3.270;2023-05-07T03:57:36;410.40;2355.20
16491;DHT22;8356;51.214;3.270;2023-05-07T04:00:02;410.40;2355.20
16491;DHT22;8356;51.214;3.270;2023-05-07T04:02:29;410.30;2355.20
16491;DHT22;8356;51.214;3.270;2023-05-07T04:04:55;410.30;2355.20
16491;DHT22;8356;51.214;3.270;2023-05-07T04:07:22;410.30;2355.20
16491;DHT22;8356;51.214;3.270;2023-05-07T04:09:47;410.20;2355.20
16491;DHT22;8356;51.214;3.270;2023-05-07T04:12:13;410.20;2355.20
16491;DHT22;8356;51.214;3.270;2023-05-07T04:14:39;410.20;2355.20
16491;DHT22;8356;51.214;3.270;2023-05-07T04:17:04;410.10;2355.20
16491;DHT22;8356;51.214;3.270;2023-05-07T04:19:33;410.10;2355.20
16491;DHT22;8356;51.214;3.270;2023-05-07T04:21:58;410.10;2355.20
16491;DHT22;8356;51.214;3.270;2023-05-07T04:24:24;410.20;2355.20
16491;DHT22;8356;51.214;3.270;2023-05-07T04:26:50;410.20;2355.20
16491;DHT22;8356;51.214;3.270;2023-05-07T04:29:16;410.30;2355.20
16491;DHT22;8356;51.214;3.270;2023-05-07T04:31:42;410.50;2355.20
16491;DHT22;8356;51.214;3.270;2023-05-07T04:34:10;435.30;2355.20
16491;DHT22;8356;51.214;3.270;2023-05-07T04:36:37;435.40;2355.20
16491;DHT22;8356;51.214;3.270;2023-05-07T04:39:03;435.50;2355.20
16491;DHT22;8356;51.214;3.270;2023-05-07T04:41:29;435.40;2355.20
16491;DHT22;8356;51.214;3.270;2023-05-07T04:43:55;435.50;2355.20
16491;DHT22;8356;51.214;3.270;2023-05-07T04:46:22;435.40;2355.20
16491;DHT22;8356;51.214;3.270;2023-05-07T04:48:49;435.40;2355.20
16491;DHT22;8356;51.214;3.270;2023-05-07T04:51:15;435.50;2355.20
16491;DHT22;8356;51.214;3.270;2023-05-07T04:53:40;435.50;2355.20
16491;DHT22;8356;51.214;3.270;2023-05-07T04:56:06;435.50;2355.20
16491;DHT22;8356;51.214;3.270;2023-05-07T04:58:32;435.60;2355.20
16491;DHT22;8356;51.214;3.270;2023-05-07T05:00:58;435.60;2355.20
16491;DHT22;8356;51.214;3.270;2023-05-07T05:03:24;435.60;2355.20
16491;DHT22;8356;51.214;3.270;2023-05-07T05:05:51;435.60;2355.20
16491;DHT22;8356;51.214;3.270;2023-05-07T05:08:17;435.60;2355.20
16491;DHT22;8356;51.214;3.270;2023-05-07T05:10:43;435.60;2355.20
16491;DHT22;8356;51.214;3.270;2023-05-07T05:13:09;435.50;2355.20
16491;DHT22;8356;51.214;3.270;2023-05-07T05:15:35;435.50;2355.20
16491;DHT22;8356;51.214;3.270;2023-05-07T05:18:01;435.60;2355.20
16491;DHT22;8356;51.214;3.270;2023-05-07T05:20:26;435.60;2355.20
16491;DHT22;8356;51.214;3.270;2023-05-07T05:22:52;435.70;2355.20
16491;DHT22;8356;51.214;3.270;2023-05-07T05:25:18;435.60;2355.20
16491;DHT22;8356;51.214;3.270;2023-05-07T05:27:43;435.60;2355.20
16491;DHT22;8356;51.214;3.270;2023-05-07T05:30:09;435.60;2355.20
16491;DHT22;8356;51.214;3.270;2023-05-07T05:32:35;435.60;2355.20
16491;DHT22;8356;51.214;3.270;2023-05-07T05:35:01;435.70;2355.20
16491;DHT22;8356;51.214;3.270;2023-05-07T05:37:27;435.70;2355.20
16491;DHT22;8356;51.214;3.270;2023-05-07T05:39:52;435.80;2355.20
16491;DHT22;8356;51.214;3.270;2023-05-07T05:42:20;435.90;2355.20
16491;DHT22;8356;51.214;3.270;2023-05-07T05:44:45;435.90;2355.20
16491;DHT22;8356;51.214;3.270;2023-05-07T05:47:11;435.90;2355.20
16491;DHT22;8356;51.214;3.270;2023-05-07T05:49:37;436.00;2355.20
16491;DHT22;8356;51.214;3.270;2023-05-07T05:52:02;436.00;2355.20
16491;DHT22;8356;51.214;3.270;2023-05-07T05:54:28;436.10;2355.20
16491;DHT22;8356;51.214;3.270;2023-05-07T05:56:54;460.80;2380.80
16491;DHT22;8356;51.214;3.270;2023-05-07T05:59:19;460.80;2380.80
16491;DHT22;8356;51.214;3.270;2023-05-07T06:01:45;460.80;2380.80
16491;DHT22;8356;51.214;3.270;2023-05-07T06:04:11;436.10;2355.20
16491;DHT22;8356;51.214;3.270;2023-05-07T06:06:36;460.80;2380.80
16491;DHT22;8356;51.214;3.270;2023-05-07T06:09:02;460.80;2380.80
16491;DHT22;8356;51.214;3.270;2023-05-07T06:11:28;460.80;2380.80
16491;DHT22;8356;51.214;3.270;2023-05-07T06:13:54;460.80;2380.80
16491;DHT22;8356;51.214;3.270;2023-05-07T06:16:19;460.80;2380.80
16491;DHT22;8356;51.214;3.270;2023-05-07T06:26:06;461.50;2380.80
16491;DHT22;8356;51.214;3.270;2023-05-07T06:28:32;461.50;2380.80
16491;DHT22;8356;51.214;3.270;2023-05-07T06:31:20;461.60;2380.80
16491;DHT22;8356;51.214;3.270;2023-05-07T06:33:46;486.40;2380.80
16491;DHT22;8356;51.214;3.270;2023-05-07T06:36:12;486.50;2380.80
16491;DHT22;8356;51.214;3.270;2023-05-07T06:38:37;486.60;2380.80
16491;DHT22;8356;51.214;3.270;2023-05-07T06:41:06;486.60;2380.80
16491;DHT22;8356;51.214;3.270;2023-05-07T06:43:32;461.00;2380.80
16491;DHT22;8356;51.214;3.270;2023-05-07T06:45:57;486.70;2380.80
16491;DHT22;8356;51.214;3.270;2023-05-07T06:48:23;486.70;2380.80
16491;DHT22;8356;51.214;3.270;2023-05-07T06:50:49;486.70;2380.80
16491;DHT22;8356;51.214;3.270;2023-05-07T06:53:15;486.80;2380.80
16491;DHT22;8356;51.214;3.270;2023-05-07T06:55:41;486.90;2380.80
16491;DHT22;8356;51.214;3.270;2023-05-07T06:58:07;486.90;2380.80
16491;DHT22;8356;51.214;3.270;2023-05-07T07:00:33;486.90;2380.80
16491;DHT22;8356;51.214;3.270;2023-05-07T07:02:58;487.00;2380.80
16491;DHT22;8356;51.214;3.270;2023-05-07T07:05:25;487.10;2380.80
16491;DHT22;8356;51.214;3.270;2023-05-07T07:07:50;487.10;2380.80
16491;DHT22;8356;51.214;3.270;2023-05-07T07:10:24;487.20;2380.80
16491;DHT22;8356;51.214;3.270;2023-05-07T07:12:50;487.20;2380.80
16491;DHT22;8356;51.214;3.270;2023-05-07T07:15:16;487.30;2380.80
16491;DHT22;8356;51.214;3.270;2023-05-07T07:17:41;487.30;2380.80
16491;DHT22;8356;51.214;3.270;2023-05-07T07:20:07;487.30;2380.80
16491;DHT22;8356;51.214;3.270;2023-05-07T07:22:33;512.00;2380.80
16491;DHT22;8356;51.214;3.270;2023-05-07T07:24:59;512.00;2380.80
16491;DHT22;8356;51.214;3.270;2023-05-07T07:27:25;512.10;2380.80
16491;DHT22;8356;51.214;3.270;2023-05-07T07:29:50;512.30;2380.80
16491;DHT22;8356;51.214;3.270;2023-05-07T07:32:16;512.40;2380.80
16491;DHT22;8356;51.214;3.270;2023-05-07T07:34:42;512.40;2380.80
16491;DHT22;8356;51.214;3.270;2023-05-07T07:37:07;512.40;2380.80
16491;DHT22;8356;51.214;3.270;2023-05-07T07:39:33;512.40;2380.80
16491;DHT22;8356;51.214;3.270;2023-05-07T07:41:59;512.50;2380.80
16491;DHT22;8356;51.214;3.270;2023-05-07T07:44:25;512.50;2380.80
16491;DHT22;8356;51.214;3.270;2023-05-07T07:46:51;512.60;2380.80
16491;DHT22;8356;51.214;3.270;2023-05-07T07:49:17;512.60;2380.80
16491;DHT22;8356;51.214;3.270;2023-05-07T07:51:43;512.60;2380.80
16491;DHT22;8356;51.214;3.270;2023-05-07T07:54:08;512.60;2380.80
16491;DHT22;8356;51.214;3.270;2023-05-07T07:56:34;512.60;2380.80
16491;DHT22;8356;51.214;3.270;2023-05-07T07:59:00;512.60;2380.80
16491;DHT22;8356;51.214;3.270;2023-05-07T08:01:26;512.60;2380.80
16491;DHT22;8356;51.214;3.270;2023-05-07T08:03:52;512.60;2380.80
16491;DHT22;8356;51.214;3.270;2023-05-07T08:06:18;512.60;2380.80
16491;DHT22;8356;51.214;3.270;2023-05-07T08:08:44;512.50;2380.80
16491;DHT22;8356;51.214;3.270;2023-05-07T08:11:09;512.40;2380.80
16491;DHT22;8356;51.214;3.270;2023-05-07T08:13:36;512.30;2380.80
16491;DHT22;8356;51.214;3.270;2023-05-07T08:16:02;512.20;2380.80
16491;DHT22;8356;51.214;3.270;2023-05-07T08:18:27;512.30;2380.80
16491;DHT22;8356;51.214;3.270;2023-05-07T08:20:54;512.30;2380.80
16491;DHT22;8356;51.214;3.270;2023-05-07T08:23:20;512.30;2380.80
16491;DHT22;8356;51.214;3.270;2023-05-07T08:25:46;512.40;2380.80
16491;DHT22;8356;51.214;3.270;2023-05-07T08:28:12;512.40;2380.80
16491;DHT22;8356;51.214;3.270;2023-05-07T08:30:37;512.30;2380.80
16491;DHT22;8356;51.214;3.270;2023-05-07T08:33:03;512.30;2380.80
16491;DHT22;8356;51.214;3.270;2023-05-07T08:35:29;512.30;2380.80
16491;DHT22;8356;51.214;3.270;2023-05-07T08:37:55;512.30;2380.80
16491;DHT22;8356;51.214;3.270;2023-05-07T08:40:24;512.30;2380.80
16491;DHT22;8356;51.214;3.270;2023-05-07T08:42:52;512.20;2380.80
16491;DHT22;8356;51.214;3.270;2023-05-07T08:45:19;512.20;2380.80
16491;DHT22;8356;51.214;3.270;2023-05-07T08:47:52;512.20;2380.80
16491;DHT22;8356;51.214;3.270;2023-05-07T08:50:21;512.10;2380.80
16491;DHT22;8356;51.214;3.270;2023-05-07T08:52:47;512.20;2380.80
16491;DHT22;8356;51.214;3.270;2023-05-07T08:55:13;512.10;2380.80
16491;DHT22;8356;51.214;3.270;2023-05-07T08:57:39;512.10;2380.80
16491;DHT22;8356;51.214;3.270;2023-05-07T09:00:06;512.00;2380.80
16491;DHT22;8356;51.214;3.270;2023-05-07T09:02:33;512.00;2380.80
16491;DHT22;8356;51.214;3.270;2023-05-07T09:04:58;487.30;2380.80
16491;DHT22;8356;51.214;3.270;2023-05-07T09:07:25;487.30;2380.80
16491;DHT22;8356;51.214;3.270;2023-05-07T09:09:51;487.30;2380.80
16491;DHT22;8356;51.214;3.270;2023-05-07T09:12:18;487.30;2380.80
16491;DHT22;8356;51.214;3.270;2023-05-07T09:14:45;487.30;2380.80
16491;DHT22;8356;51.214;3.270;2023-05-07T09:17:11;487.30;2380.80
16491;DHT22;8356;51.214;3.270;2023-05-07T09:19:37;487.30;2380.80
16491;DHT22;8356;51.214;3.270;2023-05-07T09:22:05;487.30;2380.80
16491;DHT22;8356;51.214;3.270;2023-05-07T09:24:32;487.30;2380.80
16491;DHT22;8356;51.214;3.270;2023-05-07T09:27:01;487.10;2380.80
16491;DHT22;8356;51.214;3.270;2023-05-07T09:29:28;487.30;2380.80
16491;DHT22;8356;51.214;3.270;2023-05-07T09:32:07;487.00;2380.80
16491;DHT22;8356;51.214;3.270;2023-05-07T09:34:33;487.00;2380.80
16491;DHT22;8356;51.214;3.270;2023-05-07T09:37:03;487.00;2380.80
16491;DHT22;8356;51.214;3.270;2023-05-07T09:39:42;487.00;2380.80
16491;DHT22;8356;51.214;3.270;2023-05-07T09:42:08;486.90;2380.80
16491;DHT22;8356;51.214;3.270;2023-05-07T09:44:35;486.40;2380.80
16491;DHT22;8356;51.214;3.270;2023-05-07T09:47:04;486.70;2380.80
16491;DHT22;8356;51.214;3.270;2023-05-07T09:49:30;486.80;2380.80
16491;DHT22;8356;51.214;3.270;2023-05-07T09:52:00;486.80;2380.80
16491;DHT22;8356;51.214;3.270;2023-05-07T09:54:26;486.80;2380.80
16491;DHT22;8356;51.214;3.270;2023-05-07T09:56:55;486.80;2380.80
16491;DHT22;8356;51.214;3.270;2023-05-07T09:59:21;486.90;2380.80
16491;DHT22;8356;51.214;3.270;2023-05-07T10:01:48;487.00;2380.80
16491;DHT22;8356;51.214;3.270;2023-05-07T10:04:14;487.10;2380.80
16491;DHT22;8356;51.214;3.270;2023-05-07T10:06:40;487.10;2380.80
16491;DHT22;8356;51.214;3.270;2023-05-07T10:09:07;487.20;2380.80
16491;DHT22;8356;51.214;3.270;2023-05-07T10:11:36;487.10;2380.80
16491;DHT22;8356;51.214;3.270;2023-05-07T10:14:03;487.30;2380.80
16491;DHT22;8356;51.214;3.270;2023-05-07T10:16:35;487.30;2380.80
16491;DHT22;8356;51.214;3.270;2023-05-07T10:19:05;487.30;2380.80
16491;DHT22;8356;51.214;3.270;2023-05-07T10:21:35;487.30;2380.80
16491;DHT22;8356;51.214;3.270;2023-05-07T10:24:08;512.00;2380.80
16491;DHT22;8356;51.214;3.270;2023-05-07T10:26:46;487.30;2380.80
16491;DHT22;8356;51.214;3.270;2023-05-07T10:34:29;512.30;2380.80
16491;DHT22;8356;51.214;3.270;2023-05-07T10:36:58;512.30;2380.80
16491;DHT22;8356;51.214;3.270;2023-05-07T10:39:24;512.40;2380.80
16491;DHT22;8356;51.214;3.270;2023-05-07T10:41:50;512.40;2380.80
16491;DHT22;8356;51.214;3.270;2023-05-07T10:44:28;512.30;2380.80
16491;DHT22;8356;51.214;3.270;2023-05-07T10:47:17;512.30;2380.80
16491;DHT22;8356;51.214;3.270;2023-05-07T10:54:44;512.30;2380.80
16491;DHT22;8356;51.214;3.270;2023-05-07T10:59:58;512.60;2380.80
16491;DHT22;8356;51.214;3.270;2023-05-07T11:05:24;512.80;2380.80
16491;DHT22;8356;51.214;3.270;2023-05-07T11:07:57;512.90;2380.80
16491;DHT22;8356;51.214;3.270;2023-05-07T11:10:23;537.60;2406.40
16491;DHT22;8356;51.214;3.270;2023-05-07T11:13:09;537.60;2406.40
16491;DHT22;8356;51.214;3.270;2023-05-07T11:15:39;537.60;2406.40
16491;DHT22;8356;51.214;3.270;2023-05-07T11:18:05;512.90;2380.80
16491;DHT22;8356;51.214;3.270;2023-05-07T11:20:55;512.90;2380.80
16491;DHT22;8356;51.214;3.270;2023-05-07T11:26:08;537.70;2406.40
16491;DHT22;8356;51.214;3.270;2023-05-07T11:28:39;537.70;2406.40
16491;DHT22;8356;51.214;3.270;2023-05-07T11:31:05;537.70;2406.40
16491;DHT22;8356;51.214;3.270;2023-05-07T11:33:31;537.80;2406.40
16491;DHT22;8356;51.214;3.270;2023-05-07T11:35:57;537.80;2406.40
16491;DHT22;8356;51.214;3.270;2023-05-07T11:38:25;537.90;2406.40
16491;DHT22;8356;51.214;3.270;2023-05-07T11:43:17;538.50;2406.40
16491;DHT22;8356;51.214;3.270;2023-05-07T11:45:44;538.50;2406.40
16491;DHT22;8356;51.214;3.270;2023-05-07T12:29:51;564.00;2432.00
16491;DHT22;8356;51.214;3.270;2023-05-07T12:32:19;563.80;2432.00
16491;DHT22;8356;51.214;3.270;2023-05-07T12:34:46;563.80;2432.00
16491;DHT22;8356;51.214;3.270;2023-05-07T12:37:12;563.70;2432.00
16491;DHT22;8356;51.214;3.270;2023-05-07T12:39:43;563.40;2432.00
16491;DHT22;8356;51.214;3.270;2023-05-07T12:42:23;563.40;2432.00
16491;DHT22;8356;51.214;3.270;2023-05-07T12:44:51;563.40;2432.00
16491;DHT22;8356;51.214;3.270;2023-05-07T12:47:17;563.40;2432.00
16491;DHT22;8356;51.214;3.270;2023-05-07T12:49:43;563.40;2432.00
16491;DHT22;8356;51.214;3.270;2023-05-07T12:52:11;563.60;2432.00
16491;DHT22;8356;51.214;3.270;2023-05-07T12:54:38;563.90;2432.00
16491;DHT22;8356;51.214;3.270;2023-05-07T12:57:08;564.00;2432.00
16491;DHT22;8356;51.214;3.270;2023-05-07T12:59:41;564.00;2432.00
16491;DHT22;8356;51.214;3.270;2023-05-07T13:02:08;564.00;2432.00
16491;DHT22;8356;51.214;3.270;2023-05-07T13:04:34;564.00;2432.00
16491;DHT22;8356;51.214;3.270;2023-05-07T13:07:01;564.00;2432.00
16491;DHT22;8356;51.214;3.270;2023-05-07T13:09:26;564.00;2432.00
16491;DHT22;8356;51.214;3.270;2023-05-07T13:11:54;564.00;2432.00
16491;DHT22;8356;51.214;3.270;2023-05-07T13:14:20;563.90;2432.00
16491;DHT22;8356;51.214;3.270;2023-05-07T13:16:47;564.10;2432.00
16491;DHT22;8356;51.214;3.270;2023-05-07T13:19:12;588.80;2432.00
16491;DHT22;8356;51.214;3.270;2023-05-07T13:21:38;588.90;2432.00
16491;DHT22;8356;51.214;3.270;2023-05-07T13:24:04;588.90;2432.00
16491;DHT22;8356;51.214;3.270;2023-05-07T13:26:31;588.90;2432.00
16491;DHT22;8356;51.214;3.270;2023-05-07T13:28:57;588.90;2432.00
16491;DHT22;8356;51.214;3.270;2023-05-07T13:31:24;588.90;2432.00
16491;DHT22;8356;51.214;3.270;2023-05-07T13:33:50;588.80;2432.00
16491;DHT22;8356;51.214;3.270;2023-05-07T13:36:16;564.00;2432.00
16491;DHT22;8356;51.214;3.270;2023-05-07T13:38:41;564.00;2432.00
16491;DHT22;8356;51.214;3.270;2023-05-07T13:41:07;563.90;2432.00
16491;DHT22;8356;51.214;3.270;2023-05-07T13:43:32;563.90;2432.00
16491;DHT22;8356;51.214;3.270;2023-05-07T13:45:59;563.90;2432.00
16491;DHT22;8356;51.214;3.270;2023-05-07T13:48:25;563.90;2432.00
16491;DHT22;8356;51.214;3.270;2023-05-07T13:50:51;563.90;2432.00
16491;DHT22;8356;51.214;3.270;2023-05-07T13:53:18;563.90;2432.00
16491;DHT22;8356;51.214;3.270;2023-05-07T13:55:44;564.00;2432.00
16491;DHT22;8356;51.214;3.270;2023-05-07T13:58:10;589.00;2432.00
16491;DHT22;8356;51.214;3.270;2023-05-07T14:00:36;589.20;2432.00
16491;DHT22;8356;51.214;3.270;2023-05-07T14:03:02;589.30;2432.00
16491;DHT22;8356;51.214;3.270;2023-05-07T14:05:28;589.20;2432.00
16491;DHT22;8356;51.214;3.270;2023-05-07T14:07:55;589.00;2432.00
16491;DHT22;8356;51.214;3.270;2023-05-07T14:10:22;589.00;2432.00
16491;DHT22;8356;51.214;3.270;2023-05-07T14:12:47;589.00;2432.00
16491;DHT22;8356;51.214;3.270;2023-05-07T14:15:14;589.20;2432.00
16491;DHT22;8356;51.214;3.270;2023-05-07T14:17:39;589.40;2432.00
16491;DHT22;8356;51.214;3.270;2023-05-07T14:20:05;589.70;2432.00
16491;DHT22;8356;51.214;3.270;2023-05-07T14:22:34;614.40;2432.00
16491;DHT22;8356;51.214;3.270;2023-05-07T14:25:00;614.50;2432.00
16491;DHT22;8356;51.214;3.270;2023-05-07T14:27:25;589.70;2432.00
16491;DHT22;8356;51.214;3.270;2023-05-07T14:29:51;589.10;2432.00
16491;DHT22;8356;51.214;3.270;2023-05-07T14:32:21;588.90;2432.00
16491;DHT22;8356;51.214;3.270;2023-05-07T14:34:47;564.10;2432.00
16491;DHT22;8356;51.214;3.270;2023-05-07T14:37:13;588.80;2432.00
16491;DHT22;8356;51.214;3.270;2023-05-07T14:39:39;564.10;2432.00
16491;DHT22;8356;51.214;3.270;2023-05-07T14:42:05;563.90;2432.00
16491;DHT22;8356;51.214;3.270;2023-05-07T14:44:34;563.60;2432.00
16491;DHT22;8356;51.214;3.270;2023-05-07T14:46:59;563.40;2432.00
16491;DHT22;8356;51.214;3.270;2023-05-07T14:49:25;563.50;2432.00
16491;DHT22;8356;51.214;3.270;2023-05-07T14:51:50;563.50;2432.00
16491;DHT22;8356;51.214;3.270;2023-05-07T14:54:16;563.40;2432.00
16491;DHT22;8356;51.214;3.270;2023-05-07T14:56:42;563.50;2432.00
16491;DHT22;8356;51.214;3.270;2023-05-07T14:59:08;563.50;2432.00
16491;DHT22;8356;51.214;3.270;2023-05-07T15:01:35;563.60;2432.00
16491;DHT22;8356;51.214;3.270;2023-05-07T15:04:04;563.40;2432.00
16491;DHT22;8356;51.214;3.270;2023-05-07T15:06:30;538.50;2406.40
16491;DHT22;8356;51.214;3.270;2023-05-07T15:08:56;538.30;2406.40
16491;DHT22;8356;51.214;3.270;2023-05-07T15:11:22;537.90;2406.40
16491;DHT22;8356;51.214;3.270;2023-05-07T15:13:48;537.70;2406.40
16491;DHT22;8356;51.214;3.270;2023-05-07T15:16:14;537.70;2406.40
16491;DHT22;8356;51.214;3.270;2023-05-07T15:18:39;537.70;2406.40
16491;DHT22;8356;51.214;3.270;2023-05-07T15:21:05;537.60;2406.40
16491;DHT22;8356;51.214;3.270;2023-05-07T15:23:31;537.60;2406.40
16491;DHT22;8356;51.214;3.270;2023-05-07T15:25:57;512.80;2380.80
16491;DHT22;8356;51.214;3.270;2023-05-07T15:28:23;487.30;2380.80
16491;DHT22;8356;51.214;3.270;2023-05-07T15:30:49;512.80;2380.80
16491;DHT22;8356;51.214;3.270;2023-05-07T15:33:15;512.80;2380.80
16491;DHT22;8356;51.214;3.270;2023-05-07T15:35:41;512.80;2380.80
16491;DHT22;8356;51.214;3.270;2023-05-07T15:38:06;512.50;2380.80
16491;DHT22;8356;51.214;3.270;2023-05-07T15:40:34;512.30;2380.80
16491;DHT22;8356;51.214;3.270;2023-05-07T15:43:00;512.30;2380.80
16491;DHT22;8356;51.214;3.270;2023-05-07T15:45:26;512.20;2380.80
16491;DHT22;8356;51.214;3.270;2023-05-07T15:47:51;512.40;2380.80
16491;DHT22;8356;51.214;3.270;2023-05-07T15:50:17;512.50;2380.80
16491;DHT22;8356;51.214;3.270;2023-05-07T15:52:43;512.40;2380.80
16491;DHT22;8356;51.214;3.270;2023-05-07T15:55:10;512.20;2380.80
16491;DHT22;8356;51.214;3.270;2023-05-07T15:57:35;512.20;2380.80
16491;DHT22;8356;51.214;3.270;2023-05-07T16:00:01;512.20;2380.80
16491;DHT22;8356;51.214;3.270;2023-05-07T16:02:28;512.50;2380.80
16491;DHT22;8356;51.214;3.270;2023-05-07T16:04:54;512.70;2380.80
16491;DHT22;8356;51.214;3.270;2023-05-07T16:07:19;512.80;2380.80
16491;DHT22;8356;51.214;3.270;2023-05-07T16:09:45;512.70;2380.80
16491;DHT22;8356;51.214;3.270;2023-05-07T16:12:11;512.50;2380.80
16491;DHT22;8356;51.214;3.270;2023-05-07T16:14:37;512.50;2380.80
16491;DHT22;8356;51.214;3.270;2023-05-07T16:17:03;512.60;2380.80
16491;DHT22;8356;51.214;3.270;2023-05-07T16:19:28;512.80;2380.80
16491;DHT22;8356;51.214;3.270;2023-05-07T16:21:54;512.90;2380.80
16491;DHT22;8356;51.214;3.270;2023-05-07T16:24:20;537.80;2406.40
16491;DHT22;8356;51.214;3.270;2023-05-07T16:26:46;538.10;2406.40
16491;DHT22;8356;51.214;3.270;2023-05-07T16:29:11;538.10;2406.40
16491;DHT22;8356;51.214;3.270;2023-05-07T16:31:37;538.10;2406.40
16491;DHT22;8356;51.214;3.270;2023-05-07T16:34:03;538.10;2406.40
16491;DHT22;8356;51.214;3.270;2023-05-07T16:36:29;538.10;2406.40
16491;DHT22;8356;51.214;3.270;2023-05-07T16:38:55;538.10;2406.40
16491;DHT22;8356;51.214;3.270;2023-05-07T16:41:21;538.30;2406.40
16491;DHT22;8356;51.214;3.270;2023-05-07T16:43:47;538.30;2406.40
16491;DHT22;8356;51.214;3.270;2023-05-07T16:46:13;563.20;2432.00
16491;DHT22;8356;51.214;3.270;2023-05-07T16:48:39;538.00;2406.40
16491;DHT22;8356;51.214;3.270;2023-05-07T16:51:05;537.80;2406.40
16491;DHT22;8356;51.214;3.270;2023-05-07T16:53:32;537.80;2406.40
16491;DHT22;8356;51.214;3.270;2023-05-07T16:55:58;537.80;2406.40
16491;DHT22;8356;51.214;3.270;2023-05-07T16:58:23;537.60;2406.40
16491;DHT22;8356;51.214;3.270;2023-05-07T17:00:49;537.60;2406.40
16491;DHT22;8356;51.214;3.270;2023-05-07T17:03:15;537.60;2406.40
16491;DHT22;8356;51.214;3.270;2023-05-07T17:05:41;537.70;2406.40
16491;DHT22;8356;51.214;3.270;2023-05-07T17:08:06;537.60;2406.40
16491;DHT22;8356;51.214;3.270;2023-05-07T17:10:32;537.60;2406.40
16491;DHT22;8356;51.214;3.270;2023-05-07T17:12:58;512.90;2380.80
16491;DHT22;8356;51.214;3.270;2023-05-07T17:15:23;512.70;2380.80
16491;DHT22;8356;51.214;3.270;2023-05-07T17:17:49;512.70;2380.80
16491;DHT22;8356;51.214;3.270;2023-05-07T17:20:15;512.70;2380.80
16491;DHT22;8356;51.214;3.270;2023-05-07T17:22:40;512.40;2380.80
16491;DHT22;8356;51.214;3.270;2023-05-07T17:25:06;512.30;2380.80
16491;DHT22;8356;51.214;3.270;2023-05-07T17:27:32;512.30;2380.80
16491;DHT22;8356;51.214;3.270;2023-05-07T17:29:59;512.30;2380.80
16491;DHT22;8356;51.214;3.270;2023-05-07T17:32:25;512.60;2380.80
16491;DHT22;8356;51.214;3.270;2023-05-07T17:34:51;512.30;2380.80
16491;DHT22;8356;51.214;3.270;2023-05-07T17:37:16;512.20;2380.80
16491;DHT22;8356;51.214;3.270;2023-05-07T17:39:42;512.20;2380.80
16491;DHT22;8356;51.214;3.270;2023-05-07T17:42:08;512.00;2380.80
16491;DHT22;8356;51.214;3.270;2023-05-07T17:44:34;487.30;2380.80
16491;DHT22;8356;51.214;3.270;2023-05-07T17:46:59;512.00;2380.80
16491;DHT22;8356;51.214;3.270;2023-05-07T17:49:25;512.00;2380.80
16491;DHT22;8356;51.214;3.270;2023-05-07T17:51:51;487.30;2380.80
16491;DHT22;8356;51.214;3.270;2023-05-07T17:54:17;487.30;2380.80
16491;DHT22;8356;51.214;3.270;2023-05-07T17:56:43;487.30;2380.80
16491;DHT22;8356;51.214;3.270;2023-05-07T17:59:09;512.00;2380.80
16491;DHT22;8356;51.214;3.270;2023-05-07T18:01:36;512.00;2380.80